Time;durP1;ratioP1;P1;durP2;ratioP2;P2;SDS_P1;SDS_P2;PMS_P1;PMS_P2;Temp;Humidity;BMP_temperature;BMP_pressure;BME280_temperature;BME280_humidity;BME280_pressure;Samples;Min_cycle;Max_cycle;Signal;HPM_P1;HPM_P2
2021/05/20 00:00:31;;;;;;;6.10;4.70;;;9.70;99.90;;;;;;5069160;28;20032;-90
2021/05/20 00:03:15;;;;;;;5.75;4.28;;;9.60;99.90;;;;;;5034840;28;20036;-92
2021/05/20 00:08:44;;;;;;;6.03;4.78;;;9.50;99.90;;;;;;5057043;28;20051;-93
2021/05/20 00:11:09;;;;;;;5.78;4.85;;;9.50;99.90;;;;;;5051972;28;20033;-91
2021/05/20 00:13:54;;;;;;;5.10;4.18;;;9.40;99.90;;;;;;5057412;28;20036;-92
2021/05/20 00:16:20;;;;;;;5.35;4.50;;;9.40;99.90;;;;;;5035471;28;20040;-91
2021/05/20 00:18:46;;;;;;;5.30;4.10;;;9.30;99.90;;;;;;5051537;28;20392;-91
2021/05/20 00:21:11;;;;;;;6.50;5.00;;;9.30;99.90;;;;;;5051511;28;20037;-91
2021/05/20 00:23:56;;;;;;;5.43;4.50;;;9.20;99.90;;;;;;5050749;28;20062;-92
2021/05/20 00:26:23;;;;;;;5.43;4.55;;;9.20;99.90;;;;;;5051262;28;20044;-91
2021/05/20 00:28:52;;;;;;;6.20;5.40;;;9.20;99.90;;;;;;5051241;28;20120;-89
2021/05/20 00:31:22;;;;;;;6.65;5.25;;;9.10;99.90;;;;;;5065087;28;20082;-90
2021/05/20 00:33:50;;;;;;;6.18;5.15;;;9.10;99.90;;;;;;5049211;28;20050;-91
2021/05/20 00:36:16;;;;;;;6.60;4.93;;;9.10;99.90;;;;;;5054900;28;20029;-91
2021/05/20 00:39:05;;;;;;;5.97;5.15;;;9.10;99.90;;;;;;5038280;28;20128;-89
2021/05/20 00:41:50;;;;;;;6.57;5.07;;;9.10;99.90;;;;;;5069671;28;20059;-90
2021/05/20 00:44:17;;;;;;;7.35;5.30;;;9.00;99.90;;;;;;5047069;28;20044;-90
2021/05/20 00:47:02;;;;;;;6.82;5.57;;;9.00;99.90;;;;;;5034330;28;20037;-92
2021/05/20 00:52:12;;;;;;;7.95;6.03;;;8.90;99.90;;;;;;5072780;28;20401;-92
2021/05/20 00:54:38;;;;;;;7.20;5.68;;;8.90;99.90;;;;;;5068592;28;20036;-90
2021/05/20 00:57:23;;;;;;;7.18;5.70;;;8.90;99.90;;;;;;5054390;28;20492;-91
2021/05/20 01:00:09;;;;;;;7.63;6.32;;;8.90;99.90;;;;;;5084036;28;20054;-91
2021/05/20 01:02:41;;;;;;;7.03;6.15;;;8.80;99.90;;;;;;5074697;28;20044;-92
2021/05/20 01:05:26;;;;;;;8.52;6.55;;;8.80;99.90;;;;;;5054975;28;20119;-92
2021/05/20 01:07:53;;;;;;;8.85;6.60;;;8.80;99.90;;;;;;5067566;28;20036;-89
2021/05/20 01:10:37;;;;;;;8.63;6.63;;;8.70;99.90;;;;;;5079170;28;20471;-91
2021/05/20 01:13:03;;;;;;;8.18;6.40;;;8.70;99.90;;;;;;5078652;28;20032;-90
2021/05/20 01:15:32;;;;;;;8.15;6.85;;;8.70;99.90;;;;;;5078687;28;20051;-91
2021/05/20 01:21:06;;;;;;;8.63;6.47;;;8.60;99.90;;;;;;5096272;28;20032;-91
2021/05/20 01:23:51;;;;;;;8.95;6.90;;;8.70;99.90;;;;;;5062377;28;20085;-91
2021/05/20 01:26:16;;;;;;;10.07;7.38;;;8.60;99.90;;;;;;5078540;28;20047;-91
2021/05/20 01:28:42;;;;;;;9.55;7.05;;;8.60;99.90;;;;;;5078507;28;20384;-90
2021/05/20 01:31:09;;;;;;;9.15;7.40;;;8.60;99.90;;;;;;5096701;28;20055;-91
2021/05/20 01:34:12;;;;;;;9.82;8.02;;;8.60;99.90;;;;;;5079418;28;20387;-91
2021/05/20 01:45:31;;;;;;;11.05;8.55;;;8.50;99.90;;;;;;5086934;28;20507;-91
2021/05/20 01:48:17;;;;;;;9.98;8.45;;;8.50;99.90;;;;;;5046263;28;20037;-91
2021/05/20 01:50:46;;;;;;;9.30;7.50;;;8.40;99.90;;;;;;5081243;28;20114;-91
2021/05/20 01:53:12;;;;;;;10.02;8.35;;;8.40;99.90;;;;;;5058703;28;20048;-92
2021/05/20 01:55:41;;;;;;;9.55;7.88;;;8.40;99.90;;;;;;5090854;28;20040;-91
2021/05/20 02:00:51;;;;;;;9.52;7.57;;;8.40;99.90;;;;;;5069644;28;20032;-93
2021/05/20 02:06:21;;;;;;;10.45;8.63;;;8.30;99.90;;;;;;5077680;28;20101;-92
2021/05/20 02:09:06;;;;;;;12.43;8.95;;;8.30;99.90;;;;;;5049543;28;20103;-91
2021/05/20 02:11:32;;;;;;;10.95;9.18;;;8.30;99.90;;;;;;5065574;28;20029;-92
2021/05/20 02:13:59;;;;;;;11.80;10.07;;;8.30;99.90;;;;;;5081685;28;20063;-91
2021/05/20 02:22:50;;;;;;;11.20;8.77;;;8.20;99.90;;;;;;5082745;28;20028;-92
2021/05/20 02:25:34;;;;;;;11.80;9.43;;;8.20;99.90;;;;;;5064195;28;20136;-92
2021/05/20 02:33:48;;;;;;;16.20;12.52;;;8.30;99.90;;;;;;5078364;28;20289;-92
2021/05/20 02:36:13;;;;;;;18.10;12.98;;;8.30;99.90;;;;;;5060872;28;20143;-92
2021/05/20 02:47:31;;;;;;;14.98;12.07;;;8.50;99.90;;;;;;5080817;28;20090;-94
2021/05/20 02:53:23;;;;;;;17.15;12.57;;;8.70;99.90;;;;;;5066875;28;20051;-92
2021/05/20 02:56:08;;;;;;;17.10;11.98;;;8.80;99.90;;;;;;5062352;28;20037;-92
2021/05/20 03:01:47;;;;;;;23.67;13.32;;;8.90;99.90;;;;;;5105136;28;20046;-93
2021/05/20 03:04:31;;;;;;;20.40;13.35;;;9.00;99.90;;;;;;5091625;28;20051;-92
2021/05/20 03:07:15;;;;;;;24.80;15.10;;;9.00;99.90;;;;;;5074230;28;20055;-93
2021/05/20 03:10:19;;;;;;;19.52;13.15;;;9.10;99.90;;;;;;5079984;28;20108;-91
2021/05/20 03:12:44;;;;;;;20.60;14.70;;;9.00;99.90;;;;;;5084271;28;20143;-92
2021/05/20 03:15:11;;;;;;;25.02;15.40;;;9.00;99.90;;;;;;5043845;28;20052;-92
2021/05/20 03:23:24;;;;;;;21.73;15.23;;;9.10;99.90;;;;;;5115429;28;20111;-92
2021/05/20 03:25:50;;;;;;;26.48;16.67;;;9.10;99.90;;;;;;5102306;28;20153;-93
2021/05/20 03:31:39;;;;;;;26.88;17.27;;;9.10;99.90;;;;;;5070402;28;20043;-93
2021/05/20 03:34:06;;;;;;;24.27;16.45;;;9.10;99.90;;;;;;5097024;28;20051;-92
2021/05/20 03:39:37;;;;;;;25.80;17.70;;;9.20;99.90;;;;;;5097853;28;20126;-93
2021/05/20 03:42:23;;;;;;;28.35;16.77;;;9.10;99.90;;;;;;5060395;28;20448;-92
2021/05/20 03:45:10;;;;;;;33.78;20.63;;;9.10;99.90;;;;;;5052814;28;20068;-92
2021/05/20 03:47:54;;;;;;;30.50;18.08;;;9.10;99.90;;;;;;5092483;28;20471;-92
2021/05/20 03:53:29;;;;;;;27.83;16.35;;;9.10;99.90;;;;;;5099339;28;20154;-93
2021/05/20 03:55:56;;;;;;;21.85;13.70;;;9.20;99.90;;;;;;5079122;28;20049;-92
2021/05/20 04:01:07;;;;;;;31.50;16.08;;;9.20;99.90;;;;;;5100937;28;20099;-92
2021/05/20 04:03:53;;;;;;;27.58;15.43;;;9.20;99.90;;;;;;5100684;28;20111;-92
2021/05/20 04:06:21;;;;;;;29.67;16.52;;;9.30;99.90;;;;;;5099474;28;20032;-92
2021/05/20 04:08:50;;;;;;;26.45;16.88;;;9.20;99.90;;;;;;5096057;28;20036;-92
2021/05/20 04:11:38;;;;;;;23.40;15.98;;;9.20;99.90;;;;;;5075069;28;20032;-92
2021/05/20 04:14:22;;;;;;;26.63;18.30;;;9.30;99.90;;;;;;5090394;28;20040;-93
2021/05/20 04:16:49;;;;;;;26.27;17.77;;;9.20;99.90;;;;;;5066054;28;20035;-93
2021/05/20 04:19:34;;;;;;;32.63;20.75;;;9.10;99.90;;;;;;5068102;28;20040;-94
2021/05/20 04:21:59;;;;;;;29.35;20.52;;;9.10;99.90;;;;;;5094380;28;20095;-93
2021/05/20 04:24:27;;;;;;;27.13;18.70;;;9.10;99.90;;;;;;5100288;28;20035;-94
2021/05/20 04:26:59;;;;;;;25.88;17.42;;;9.00;99.90;;;;;;5076219;28;20044;-92
2021/05/20 04:29:25;;;;;;;25.90;16.75;;;9.10;99.90;;;;;;5082656;28;20047;-94
2021/05/20 04:31:52;;;;;;;23.13;15.57;;;9.10;99.90;;;;;;5088385;28;20040;-93
2021/05/20 04:34:37;;;;;;;23.73;15.93;;;9.20;99.90;;;;;;5058480;28;20049;-93
2021/05/20 04:37:22;;;;;;;22.55;15.27;;;9.20;99.90;;;;;;5079039;28;20059;-94
2021/05/20 04:40:06;;;;;;;23.63;15.73;;;9.20;99.90;;;;;;5090513;28;20086;-93
2021/05/20 04:42:33;;;;;;;24.15;16.35;;;9.30;99.90;;;;;;5095720;28;20034;-94
2021/05/20 04:45:44;;;;;;;23.48;16.08;;;9.30;99.90;;;;;;5063893;28;20123;-92
2021/05/20 04:48:17;;;;;;;22.42;15.48;;;9.30;99.90;;;;;;5079136;28;20066;-93
2021/05/20 04:50:46;;;;;;;22.50;15.60;;;9.40;99.90;;;;;;5080381;28;20066;-93
2021/05/20 04:56:35;;;;;;;25.02;16.98;;;9.40;99.90;;;;;;5091255;28;20043;-93
2021/05/20 04:59:02;;;;;;;23.55;16.05;;;9.40;99.90;;;;;;5081283;28;20131;-92
2021/05/20 05:01:38;;;;;;;25.80;17.33;;;9.40;99.90;;;;;;5094341;28;20086;-93
2021/05/20 05:07:08;;;;;;;28.50;19.10;;;9.40;99.90;;;;;;5097163;28;20044;-93
2021/05/20 05:13:00;;;;;;;23.35;16.50;;;9.40;99.90;;;;;;5077230;28;20569;-91
2021/05/20 05:15:47;;;;;;;25.92;16.58;;;9.50;99.90;;;;;;5090373;28;20028;-93
2021/05/20 05:18:25;;;;;;;26.95;17.38;;;9.50;99.90;;;;;;5094454;28;20613;-94
2021/05/20 05:21:03;;;;;;;25.35;16.92;;;9.50;99.90;;;;;;5044800;28;20039;-91
2021/05/20 05:26:26;;;;;;;23.77;15.15;;;9.70;99.90;;;;;;5079015;28;20054;-92
2021/05/20 05:32:20;;;;;;;29.83;20.00;;;9.70;99.90;;;;;;5086873;28;20089;-92
2021/05/20 05:35:30;;;;;;;26.63;16.65;;;9.70;99.90;;;;;;5091273;28;20052;-92
2021/05/20 05:38:03;;;;;;;26.75;16.70;;;9.70;99.90;;;;;;5058578;28;20100;-91
2021/05/20 05:46:58;;;;;;;30.30;19.65;;;9.80;99.90;;;;;;5095540;28;20061;-93
2021/05/20 05:53:08;;;;;;;31.00;19.70;;;9.80;99.90;;;;;;5095640;28;20066;-93
2021/05/20 05:55:37;;;;;;;28.88;19.75;;;9.80;99.90;;;;;;5079176;28;20057;-91
2021/05/20 05:58:13;;;;;;;32.08;19.88;;;9.80;99.90;;;;;;5095463;28;20020;-92
2021/05/20 06:01:04;;;;;;;31.00;18.98;;;9.80;99.90;;;;;;5065845;28;20032;-92
2021/05/20 06:03:37;;;;;;;25.38;17.45;;;9.90;99.90;;;;;;5100390;28;20077;-93
2021/05/20 06:06:05;;;;;;;26.52;17.25;;;10.00;99.90;;;;;;5073886;28;20287;-92
2021/05/20 06:08:57;;;;;;;27.75;17.33;;;10.10;99.90;;;;;;5069017;28;20542;-91
2021/05/20 06:11:31;;;;;;;25.88;16.30;;;10.20;99.90;;;;;;5096707;28;20040;-91
2021/05/20 06:17:21;;;;;;;27.45;17.35;;;10.30;99.90;;;;;;5095800;28;20046;-92
2021/05/20 06:20:22;;;;;;;33.67;19.05;;;10.40;99.90;;;;;;5088038;28;20032;-94
2021/05/20 06:23:03;;;;;;;42.25;24.65;;;10.50;99.90;;;;;;5070111;28;20071;-91
2021/05/20 06:25:29;;;;;;;40.80;23.63;;;10.40;99.90;;;;;;5066433;28;20127;-91
2021/05/20 06:27:58;;;;;;;44.38;25.50;;;10.30;99.90;;;;;;5063088;28;20503;-91
2021/05/20 06:33:32;;;;;;;39.73;22.73;;;10.30;99.90;;;;;;5096539;28;20109;-94
2021/05/20 06:36:01;;;;;;;39.03;21.33;;;10.40;99.90;;;;;;5077717;28;20051;-92
2021/05/20 06:39:08;;;;;;;38.92;21.70;;;10.50;99.90;;;;;;5066216;28;20052;-92
2021/05/20 06:45:08;;;;;;;36.55;20.73;;;10.60;99.90;;;;;;5092575;28;20112;-93
2021/05/20 06:47:55;;;;;;;40.55;23.20;;;10.60;99.90;;;;;;5078993;28;20438;-93
2021/05/20 06:50:44;;;;;;;33.67;20.10;;;10.70;99.90;;;;;;5094110;28;20036;-91
2021/05/20 06:53:21;;;;;;;33.75;20.20;;;10.90;99.90;;;;;;5094169;28;20039;-93
2021/05/20 06:55:59;;;;;;;35.90;21.98;;;11.00;99.90;;;;;;5062162;28;20081;-92
2021/05/20 07:04:38;;;;;;;34.83;21.13;;;11.30;99.90;;;;;;4829528;27;7901868;-94
2021/05/20 07:08:04;;;;;;;32.33;20.75;;;11.40;99.90;;;;;;5067112;28;20041;-94
2021/05/20 07:10:52;;;;;;;43.65;26.65;;;11.60;99.90;;;;;;5078175;28;20385;-93
2021/05/20 07:13:55;;;;;;;45.15;28.02;;;11.60;99.90;;;;;;5081935;28;20032;-92
2021/05/20 07:16:33;;;;;;;46.10;29.90;;;11.60;99.90;;;;;;5080320;28;20074;-93
2021/05/20 07:19:01;;;;;;;53.70;32.38;;;11.50;99.90;;;;;;5077540;28;20056;-92
2021/05/20 07:22:05;;;;;;;;;;;;;;;;;;;;;
2021/05/20 07:25:34;;;;;;;;;;;;;;;;;;;;;
2021/05/20 07:33:58;;;;;;;;;;;;;;;;;;;;;
2021/05/20 07:36:29;;;;;;;58.05;35.47;;;11.60;99.90;;;;;;5077538;28;20126;-93
2021/05/20 07:39:22;;;;;;;53.00;33.42;;;11.70;99.90;;;;;;5080525;28;20024;-93
2021/05/20 07:51:30;;;;;;;63.38;40.25;;;12.20;99.90;;;;;;5090258;28;20044;-93
2021/05/20 07:53:58;;;;;;;60.88;39.83;;;12.30;99.90;;;;;;5086588;28;20031;-94
2021/05/20 07:56:44;;;;;;;61.55;37.92;;;12.30;99.90;;;;;;5069918;28;20544;-93
2021/05/20 07:59:19;;;;;;;56.47;37.50;;;12.30;99.90;;;;;;5071941;28;20051;-92
2021/05/20 08:11:18;;;;;;;49.15;28.85;;;12.40;99.90;;;;;;5071710;28;20222;-92
2021/05/20 08:13:47;;;;;;;42.38;27.35;;;12.30;99.90;;;;;;5053332;28;20036;-92
2021/05/20 08:16:45;;;;;;;44.22;27.83;;;12.40;99.90;;;;;;5058644;28;20158;-92
2021/05/20 08:19:34;;;;;;;40.45;26.67;;;12.50;99.90;;;;;;5056820;28;20515;-93
2021/05/20 08:28:22;;;;;;;40.53;26.33;;;12.40;99.90;;;;;;5062344;28;20040;-92
2021/05/20 08:31:29;;;;;;;38.38;26.42;;;12.40;99.90;;;;;;5060437;28;20048;-94
2021/05/20 08:34:06;;;;;;;45.05;29.52;;;12.50;99.90;;;;;;5067374;28;20040;-93
2021/05/20 08:39:43;;;;;;;33.03;22.70;;;12.60;99.90;;;;;;5067024;28;20087;-93
2021/05/20 08:45:42;;;;;;;34.13;23.60;;;13.10;99.90;;;;;;5072721;28;20093;-93
2021/05/20 08:54:47;;;;;;;36.13;25.40;;;12.80;99.90;;;;;;5050457;28;20035;-92
2021/05/20 08:57:24;;;;;;;31.85;22.67;;;12.80;99.90;;;;;;5050684;28;20033;-93
2021/05/20 09:00:29;;;;;;;34.25;23.10;;;12.90;99.90;;;;;;5056268;28;20090;-94
2021/05/20 09:03:40;;;;;;;31.17;22.85;;;13.00;99.90;;;;;;5056253;28;20168;-94
2021/05/20 09:06:58;;;;;;;30.75;22.05;;;13.20;99.90;;;;;;5056149;28;20489;-94
2021/05/20 09:09:52;;;;;;;31.33;23.05;;;13.30;99.90;;;;;;5056995;28;20031;-95
2021/05/20 09:12:50;;;;;;;30.45;22.33;;;13.40;99.90;;;;;;5056629;28;20102;-93
2021/05/20 09:15:28;;;;;;;29.13;22.17;;;13.60;99.90;;;;;;5063628;28;20143;-93
2021/05/20 09:18:36;;;;;;;;;;;;;;;;;;;;;
2021/05/20 09:21:28;;;;;;;30.38;23.85;;;13.80;99.90;;;;;;5051197;28;20143;-92
2021/05/20 09:24:49;;;;;;;29.88;22.38;;;13.80;99.90;;;;;;5071949;28;20033;-91
2021/05/20 09:27:51;;;;;;;30.17;22.90;;;13.90;99.90;;;;;;5015542;28;20049;-93
2021/05/20 09:30:52;;;;;;;28.58;22.30;;;14.30;99.90;;;;;;5006219;28;20033;-92
2021/05/20 09:34:15;;;;;;;24.30;18.73;;;14.50;99.90;;;;;;5000888;28;20029;-92
2021/05/20 09:37:00;;;;;;;21.25;16.88;;;14.50;99.90;;;;;;5000094;28;20033;-91
2021/05/20 09:39:41;;;;;;;22.98;18.17;;;14.70;99.90;;;;;;4998977;28;20111;-92
2021/05/20 09:48:16;;;;;;;21.95;18.52;;;14.60;99.90;;;;;;5037486;28;20379;-93
2021/05/20 09:51:31;;;;;;;19.00;16.80;;;15.00;99.90;;;;;;5068831;28;20029;-94
2021/05/20 09:57:00;;;;;;;18.23;14.65;;;16.10;99.90;;;;;;5056114;28;20032;-92
2021/05/20 09:59:31;;;;;;;16.83;14.23;;;16.50;99.90;;;;;;5063814;28;20051;-94
2021/05/20 10:02:28;;;;;;;15.68;13.40;;;16.30;99.90;;;;;;5071846;28;20021;-93
2021/05/20 10:08:33;;;;;;;17.83;15.48;;;15.50;99.90;;;;;;5062717;28;20071;-92
2021/05/20 10:11:04;;;;;;;17.13;15.15;;;15.30;99.90;;;;;;5068192;28;20028;-90
2021/05/20 10:13:52;;;;;;;14.98;12.95;;;16.00;99.90;;;;;;5071875;28;20493;-92
2021/05/20 10:16:40;;;;;;;17.63;14.73;;;16.40;99.90;;;;;;5055169;28;20082;-90
2021/05/20 10:19:11;;;;;;;16.65;14.77;;;16.40;99.90;;;;;;5054594;28;20564;-90
2021/05/20 10:22:06;;;;;;;14.30;12.18;;;16.50;99.90;;;;;;5058289;28;20532;-91
2021/05/20 10:24:42;;;;;;;16.00;13.60;;;16.60;99.90;;;;;;5066439;28;20039;-91
2021/05/20 10:27:15;;;;;;;16.17;13.07;;;17.10;99.90;;;;;;5051199;28;20040;-91
2021/05/20 10:29:59;;;;;;;18.65;15.05;;;17.20;99.90;;;;;;5052399;28;20465;-90
2021/05/20 10:35:35;;;;;;;18.17;14.65;;;17.80;99.90;;;;;;5066218;28;20051;-92
2021/05/20 10:41:22;;;;;;;15.25;12.45;;;19.40;99.90;;;;;;5057847;28;20087;-91
2021/05/20 10:47:07;;;;;;;14.40;10.90;;;19.00;99.90;;;;;;5067979;28;20067;-90
2021/05/20 10:50:17;;;;;;;13.38;10.85;;;18.90;99.90;;;;;;5054559;28;20024;-92
2021/05/20 10:59:20;;;;;;;16.42;14.73;;;20.30;98.60;;;;;;4986126;28;20055;-90
2021/05/20 11:01:46;;;;;;;15.15;13.15;;;20.60;98.20;;;;;;5066722;28;20131;-88
2021/05/20 11:04:42;;;;;;;15.45;13.80;;;21.20;98.00;;;;;;5067220;28;20105;-91
2021/05/20 11:07:30;;;;;;;14.55;11.45;;;21.40;97.10;;;;;;5037899;28;20045;-91
2021/05/20 11:10:09;;;;;;;18.67;16.08;;;21.50;97.40;;;;;;5064942;28;20035;-89
2021/05/20 11:16:20;;;;;;;22.25;18.42;;;21.30;96.50;;;;;;5062088;28;20032;-91
2021/05/20 11:19:16;;;;;;;24.83;22.13;;;21.30;95.90;;;;;;5064376;28;20033;-90
2021/05/20 11:25:33;;;;;;;26.23;22.70;;;21.50;95.40;;;;;;5064298;28;20773;-91
2021/05/20 11:28:22;;;;;;;26.50;23.45;;;21.10;94.50;;;;;;5055640;28;20025;-90
2021/05/20 11:31:25;;;;;;;21.38;17.85;;;20.90;95.70;;;;;;5065569;28;20054;-89
2021/05/20 11:37:04;;;;;;;26.67;23.67;;;22.00;95.50;;;;;;5047731;28;20039;-90
2021/05/20 11:39:35;;;;;;;25.55;22.13;;;22.10;94.50;;;;;;5065708;28;20027;-91
2021/05/20 11:45:27;;;;;;;34.10;26.30;;;21.20;95.10;;;;;;5059308;28;20051;-90
2021/05/20 11:48:03;;;;;;;30.80;26.88;;;21.60;94.30;;;;;;5069140;28;20136;-90
2021/05/20 11:50:57;;;;;;;34.42;28.25;;;21.60;93.40;;;;;;5076739;28;20054;-90
2021/05/20 11:53:23;;;;;;;28.58;23.52;;;21.40;93.40;;;;;;5055262;28;20041;-89
2021/05/20 11:55:52;;;;;;;24.38;19.65;;;21.40;94.00;;;;;;5068952;28;20526;-88
2021/05/20 12:01:47;;;;;;;19.80;17.33;;;21.90;94.10;;;;;;5071445;28;20035;-88
2021/05/20 12:04:12;;;;;;;18.05;14.48;;;22.00;93.50;;;;;;5060182;28;20059;-88
2021/05/20 12:06:48;;;;;;;17.52;14.25;;;21.90;93.80;;;;;;5073924;28;20384;-87
2021/05/20 12:09:26;;;;;;;22.10;18.00;;;21.70;93.60;;;;;;5067849;28;20082;-87
2021/05/20 12:12:16;;;;;;;24.77;21.33;;;21.40;93.90;;;;;;5068649;28;20052;-88
2021/05/20 12:14:43;;;;;;;24.25;21.63;;;20.90;93.10;;;;;;5058942;28;20036;-89
2021/05/20 12:17:15;;;;;;;21.27;18.30;;;20.70;93.90;;;;;;5069179;28;20041;-88
2021/05/20 12:20:00;;;;;;;15.07;13.48;;;20.60;93.90;;;;;;5054669;28;20024;-89
2021/05/20 12:25:16;;;;;;;21.20;18.90;;;20.00;95.20;;;;;;5068415;28;20070;-89
2021/05/20 12:28:20;;;;;;;22.40;20.00;;;19.50;96.10;;;;;;5060079;28;20086;-89
2021/05/20 12:36:32;;;;;;;16.27;14.57;;;18.10;97.40;;;;;;5058066;28;20151;-88
2021/05/20 12:39:19;;;;;;;16.08;14.38;;;17.90;98.30;;;;;;5058445;28;20020;-88
2021/05/20 12:47:49;;;;;;;14.35;11.77;;;18.80;98.00;;;;;;5068935;28;20082;-87
2021/05/20 12:53:33;;;;;;;14.40;12.75;;;19.10;97.20;;;;;;5055415;28;20079;-87
2021/05/20 12:56:04;;;;;;;16.70;14.90;;;19.20;97.00;;;;;;5066289;28;20075;-88
2021/05/20 12:58:59;;;;;;;12.73;11.32;;;19.20;96.80;;;;;;5055786;28;20029;-86
2021/05/20 13:07:51;;;;;;;11.45;10.30;;;19.60;96.30;;;;;;5057902;28;20059;-88
2021/05/20 13:10:37;;;;;;;14.38;12.95;;;19.50;94.60;;;;;;5057807;28;20024;-88
2021/05/20 13:13:10;;;;;;;10.43;9.30;;;19.30;93.50;;;;;;5056676;28;20496;-90
2021/05/20 13:24:54;;;;;;;10.27;8.27;;;18.60;95.30;;;;;;5060071;28;20044;-88
2021/05/20 13:27:25;;;;;;;11.82;10.07;;;18.40;95.20;;;;;;5053820;28;20020;-84
2021/05/20 13:30:06;;;;;;;9.70;8.45;;;18.20;95.80;;;;;;5041706;28;20072;-85
2021/05/20 13:32:43;;;;;;;8.85;7.25;;;18.10;96.20;;;;;;5068380;28;20039;-87
2021/05/20 13:37:56;;;;;;;10.15;8.60;;;18.10;95.80;;;;;;5065920;28;20119;-88
2021/05/20 13:40:40;;;;;;;10.00;9.00;;;18.40;96.70;;;;;;5053403;28;20116;-86
2021/05/20 13:49:19;;;;;;;8.98;7.65;;;18.60;95.60;;;;;;5060910;28;20043;-86
2021/05/20 13:51:54;;;;;;;9.77;7.75;;;18.70;96.20;;;;;;5055248;28;20020;-85
2021/05/20 13:54:25;;;;;;;10.05;8.05;;;18.80;96.70;;;;;;5061972;28;20475;-91
2021/05/20 14:06:06;;;;;;;10.90;8.77;;;18.50;96.50;;;;;;5058601;28;20097;-88
2021/05/20 14:08:32;;;;;;;10.90;8.10;;;18.40;96.30;;;;;;5056013;28;20025;-86
2021/05/20 14:11:01;;;;;;;9.65;7.28;;;18.40;96.10;;;;;;5061112;28;20029;-86
2021/05/20 14:13:28;;;;;;;8.90;6.18;;;18.30;96.30;;;;;;5060258;28;20028;-87
2021/05/20 14:18:59;;;;;;;8.33;6.73;;;18.50;95.70;;;;;;5065642;28;20087;-87
2021/05/20 14:21:46;;;;;;;9.48;5.80;;;18.40;96.10;;;;;;5061976;28;20328;-87
2021/05/20 14:24:31;;;;;;;8.75;6.00;;;18.40;96.10;;;;;;5058723;28;20025;-86
2021/05/20 14:27:18;;;;;;;6.47;4.90;;;18.30;95.60;;;;;;5060188;28;20030;-87
2021/05/20 14:30:10;;;;;;;6.18;4.45;;;18.10;96.10;;;;;;5063211;28;20020;-86
2021/05/20 14:32:36;;;;;;;6.18;3.55;;;18.00;96.30;;;;;;5053836;28;20032;-85
2021/05/20 14:35:03;;;;;;;6.40;4.10;;;17.90;96.90;;;;;;5063783;28;20032;-86
2021/05/20 14:37:48;;;;;;;4.07;2.88;;;17.90;97.20;;;;;;5058906;28;20472;-86
2021/05/20 14:40:15;;;;;;;4.68;3.05;;;17.90;97.20;;;;;;5038168;28;20028;-84
2021/05/20 14:43:02;;;;;;;4.57;3.30;;;17.80;97.20;;;;;;5045897;28;20132;-87
2021/05/20 14:48:17;;;;;;;4.32;2.80;;;17.80;97.60;;;;;;5063290;28;20042;-86
2021/05/20 14:54:19;;;;;;;5.75;2.67;;;17.80;97.60;;;;;;5065217;28;20036;-86
2021/05/20 15:06:22;;;;;;;4.50;2.72;;;17.70;96.60;;;;;;5026167;28;20486;-87
2021/05/20 15:12:05;;;;;;;4.03;1.80;;;17.60;97.00;;;;;;5055378;28;20062;-85
2021/05/20 15:14:39;;;;;;;3.33;2.10;;;17.60;97.10;;;;;;5045674;28;20032;-87
2021/05/20 15:17:08;;;;;;;5.82;2.13;;;17.60;97.00;;;;;;5063557;28;20024;-87
2021/05/20 15:20:12;;;;;;;5.05;2.45;;;17.60;96.40;;;;;;5055464;28;20560;-87
2021/05/20 15:22:42;;;;;;;3.45;2.03;;;17.60;95.80;;;;;;5062767;28;20385;-87
2021/05/20 15:25:30;;;;;;;3.97;1.85;;;17.50;96.30;;;;;;5065289;28;20450;-87
2021/05/20 15:31:04;;;;;;;2.65;1.60;;;17.50;95.90;;;;;;5066768;28;20047;-87
2021/05/20 15:33:49;;;;;;;3.15;1.70;;;17.60;96.50;;;;;;5053848;28;20481;-87
2021/05/20 15:36:36;;;;;;;2.85;1.40;;;17.70;96.80;;;;;;5070446;28;20493;-88
2021/05/20 15:39:10;;;;;;;3.35;1.35;;;17.70;97.10;;;;;;5062358;28;20484;-86
2021/05/20 15:41:37;;;;;;;2.78;1.17;;;17.70;96.90;;;;;;5049926;28;20025;-86
2021/05/20 15:44:22;;;;;;;5.05;2.10;;;17.80;97.10;;;;;;5066958;28;20048;-88
2021/05/20 15:46:56;;;;;;;2.67;1.38;;;17.80;96.40;;;;;;5056995;28;20055;-86
2021/05/20 15:52:39;;;;;;;3.05;1.73;;;17.90;95.60;;;;;;5071529;28;20036;-86
2021/05/20 15:55:31;;;;;;;2.90;1.67;;;17.90;96.00;;;;;;5064411;28;20028;-91
2021/05/20 16:03:47;;;;;;;;;;;17.90;95.40;;;;;;5068754;28;20051;-85
2021/05/20 16:07:01;;;;;;;4.07;1.73;;;17.80;95.20;;;;;;5060956;28;19913;-87
2021/05/20 16:15:29;;;;;;;1.50;1.17;;;17.60;95.20;;;;;;5065463;28;20561;-86
2021/05/20 16:24:42;;;;;;;2.05;1.30;;;17.30;95.70;;;;;;5061438;28;20099;-86
2021/05/20 16:28:10;;;;;;;1.75;1.10;;;17.20;95.90;;;;;;5065041;28;20480;-86
2021/05/20 16:41:35;;;;;;;2.17;0.90;;;17.00;96.70;;;;;;5071424;28;20129;-86
2021/05/20 16:44:23;;;;;;;2.88;0.80;;;16.90;97.10;;;;;;5072526;28;20028;-86
2021/05/20 16:52:55;;;;;;;1.10;0.52;;;16.70;95.90;;;;;;5056064;28;20106;-86
2021/05/20 16:56:12;;;;;;;3.17;0.70;;;16.70;96.10;;;;;;5072550;28;20473;-86
2021/05/20 17:04:45;;;;;;;1.70;0.60;;;16.60;95.60;;;;;;5069539;28;20079;-85
2021/05/20 17:07:14;;;;;;;2.10;0.50;;;16.70;95.80;;;;;;5056393;28;20020;-85
2021/05/20 17:09:43;;;;;;;1.45;0.63;;;16.70;95.80;;;;;;5059115;28;20047;-86
2021/05/20 17:14:56;;;;;;;1.58;0.70;;;16.70;96.20;;;;;;5068954;28;20196;-86
2021/05/20 17:20:45;;;;;;;1.60;0.70;;;16.60;94.50;;;;;;5055972;28;20385;-85
2021/05/20 17:23:34;;;;;;;1.67;0.60;;;16.50;94.50;;;;;;5056970;28;20040;-86
2021/05/20 17:26:20;;;;;;;1.38;0.63;;;16.50;95.30;;;;;;5060211;28;20020;-85
2021/05/20 17:29:06;;;;;;;2.72;0.75;;;16.50;95.20;;;;;;5047923;28;20056;-85
2021/05/20 17:31:50;;;;;;;2.22;0.77;;;16.40;94.40;;;;;;5056262;28;20039;-85
2021/05/20 17:37:25;;;;;;;1.98;0.77;;;16.40;96.00;;;;;;5057250;28;20412;-83
2021/05/20 17:40:10;;;;;;;1.30;0.80;;;16.40;96.40;;;;;;5054131;28;20052;-87
2021/05/20 17:45:59;;;;;;;1.85;1.00;;;16.30;95.70;;;;;;5052929;28;20086;-84
2021/05/20 17:48:36;;;;;;;3.15;1.00;;;16.10;94.70;;;;;;5060196;28;20039;-85
2021/05/20 17:51:22;;;;;;;3.53;1.02;;;16.10;95.10;;;;;;5053044;28;20377;-85
2021/05/20 17:53:51;;;;;;;1.77;0.73;;;15.90;94.90;;;;;;5059181;28;20545;-87
2021/05/20 17:56:18;;;;;;;1.38;0.70;;;15.90;95.00;;;;;;5060399;28;20024;-86
2021/05/20 17:58:45;;;;;;;4.13;1.05;;;15.80;95.50;;;;;;5057937;28;20043;-86
2021/05/20 18:01:12;;;;;;;2.33;1.02;;;15.70;95.70;;;;;;5044768;28;20108;-85
2021/05/20 18:06:23;;;;;;;4.97;1.08;;;15.70;96.20;;;;;;5053310;28;20070;-85
2021/05/20 18:15:01;;;;;;;2.10;0.80;;;15.50;96.90;;;;;;5058329;28;20091;-83
2021/05/20 18:17:35;;;;;;;2.55;0.85;;;15.30;96.90;;;;;;5055018;28;20504;-84
2021/05/20 18:20:08;;;;;;;1.45;0.70;;;15.30;97.00;;;;;;5056059;28;20074;-84
2021/05/20 18:22:57;;;;;;;3.28;1.00;;;15.30;97.60;;;;;;5055061;28;20430;-86
2021/05/20 18:25:41;;;;;;;3.42;1.20;;;15.30;97.00;;;;;;5058818;28;20032;-86
2021/05/20 18:28:12;;;;;;;4.30;1.15;;;15.30;96.90;;;;;;5056003;28;20032;-85
2021/05/20 18:30:41;;;;;;;2.47;1.25;;;15.30;97.00;;;;;;5061530;28;20103;-84
2021/05/20 18:33:07;;;;;;;1.50;0.98;;;15.30;97.40;;;;;;5048586;28;20488;-84
2021/05/20 18:35:34;;;;;;;1.70;0.88;;;15.30;97.80;;;;;;5055390;28;20052;-86
2021/05/20 18:38:20;;;;;;;2.22;1.10;;;15.40;98.10;;;;;;5048518;28;20112;-84
2021/05/20 18:40:49;;;;;;;3.67;1.05;;;15.40;97.40;;;;;;5045534;28;20071;-84
2021/05/20 18:43:37;;;;;;;2.00;0.80;;;15.30;97.90;;;;;;5059054;28;20028;-83
2021/05/20 18:46:05;;;;;;;3.42;1.27;;;15.40;98.40;;;;;;5050439;28;20036;-87
2021/05/20 18:48:31;;;;;;;3.28;1.17;;;15.30;98.20;;;;;;5051308;28;20035;-85
2021/05/20 18:51:00;;;;;;;2.53;0.90;;;15.20;98.30;;;;;;5053538;28;20076;-86
2021/05/20 18:53:29;;;;;;;4.03;1.63;;;15.10;98.60;;;;;;5049373;28;20086;-86
2021/05/20 18:58:40;;;;;;;3.75;1.45;;;14.90;99.00;;;;;;5054899;28;20047;-86
2021/05/20 19:01:08;;;;;;;2.85;1.20;;;14.90;99.10;;;;;;5062729;28;20028;-88
2021/05/20 19:09:24;;;;;;;4.25;1.20;;;14.60;99.90;;;;;;5055351;28;20153;-86
2021/05/20 19:11:50;;;;;;;2.72;1.20;;;14.50;99.90;;;;;;5059292;28;20024;-86
2021/05/20 19:14:17;;;;;;;2.35;1.00;;;14.50;99.90;;;;;;5057010;28;20029;-85
2021/05/20 19:20:09;;;;;;;2.30;1.20;;;14.40;99.90;;;;;;5056162;28;20032;-87
2021/05/20 19:23:03;;;;;;;3.10;1.13;;;14.40;99.90;;;;;;5051066;28;20033;-88
2021/05/20 19:25:34;;;;;;;2.53;1.00;;;14.50;99.90;;;;;;5058720;28;20559;-87
2021/05/20 19:31:10;;;;;;;2.55;1.00;;;14.60;99.90;;;;;;5058268;28;20080;-86
2021/05/20 19:33:38;;;;;;;2.10;1.05;;;14.60;99.90;;;;;;5040541;28;20025;-87
2021/05/20 19:36:04;;;;;;;2.92;0.98;;;14.60;99.90;;;;;;5057532;28;20116;-86